Time;durP1;ratioP1;P1;durP2;ratioP2;P2;SDS_P1;SDS_P2;PMS_P1;PMS_P2;Temp;Humidity;BMP_temperature;BMP_pressure;BME280_temperature;BME280_humidity;BME280_pressure;Samples;Min_cycle;Max_cycle;Signal;HPM_P1;HPM_P2
2022/10/14 00:02:08;;;;;;;;;;;;;;;;;;5019600;28;19922;-30
2022/10/14 00:04:33;;;;;;;;;;;;;;;;;;5021055;28;19913;-29
2022/10/14 00:06:59;;;;;;;;;;;;;;;;;;5023672;28;20271;-29
2022/10/14 00:09:24;;;;;;;;;;;;;;;;;;5023541;28;19964;-29
2022/10/14 00:11:49;;;;;;;;;;;;;;;;;;5023380;28;19913;-29
2022/10/14 00:14:14;;;;;;;;;;;;;;;;;;5025801;28;19913;-30
2022/10/14 00:16:39;;;;;;;;;;;;;;;;;;5023954;28;20386;-29
2022/10/14 00:19:04;;;;;;;;;;;;;;;;;;5027652;28;19917;-29
2022/10/14 00:21:30;;;;;;;;;;;;;;;;;;5022940;28;20031;-30
2022/10/14 00:23:55;;;;;;;;;;;;;;;;;;5025531;28;19914;-30
2022/10/14 00:26:20;;;;;;;;;;;;;;;;;;5025534;28;20031;-29
2022/10/14 00:28:46;;;;;;;;;;;;;;;;;;5024736;28;22007;-30
2022/10/14 00:31:11;;;;;;;;;;;;;;;;;;5026144;28;20345;-29
2022/10/14 00:33:36;;;;;;;;;;;;;;;;;;5027784;28;20148;-29
2022/10/14 00:36:01;;;;;;;;;;;;;;;;;;5026578;28;19913;-29
2022/10/14 00:38:26;;;;;;;;;;;;;;;;;;5024232;28;20436;-29
2022/10/14 00:40:51;;;;;;;;;;;;;;;;;;5023524;28;19921;-29
2022/10/14 00:43:17;;;;;;;;;;;;;;;;;;5024856;28;20280;-29
2022/10/14 00:45:42;;;;;;;;;;;;;;;;;;5024121;28;20015;-29
2022/10/14 00:48:07;;;;;;;;;;;;;;;;;;5024067;28;20318;-29
2022/10/14 00:50:32;;;;;;;;;;;;;;;;;;5021510;28;19948;-30
2022/10/14 00:52:58;;;;;;;;;;;;;;;;;;5023003;28;19924;-29
2022/10/14 00:55:23;;;;;;;;;;;;;;;;;;5027088;28;19916;-29
2022/10/14 00:57:48;;;;;;;;;;;;;;;;;;5025155;28;20363;-30
2022/10/14 01:00:14;;;;;;;;;;;;;;;;;;5027382;28;20470;-29
2022/10/14 01:02:39;;;;;;;;;;;;;;;;;;5026571;28;19971;-29
2022/10/14 01:05:04;;;;;;;;;;;;;;;;;;5026231;28;20348;-29
2022/10/14 01:07:29;;;;;;;;;;;;;;;;;;5024998;28;19917;-29
2022/10/14 01:09:54;;;;;;;;;;;;;;;;;;5026038;28;19940;-32
2022/10/14 01:12:20;;;;;;;;;;;;;;;;;;5027798;28;20026;-32
2022/10/14 01:14:45;;;;;;;;;;;;;;;;;;5026587;28;19921;-32
2022/10/14 01:17:10;;;;;;;;;;;;;;;;;;5026219;28;19923;-32
2022/10/14 01:19:35;;;;;;;;;;;;;;;;;;5028293;28;19923;-32
2022/10/14 01:22:01;;;;;;;;;;;;;;;;;;5024297;28;19925;-32
2022/10/14 01:24:26;;;;;;;;;;;;;;;;;;5025563;28;19960;-32
2022/10/14 01:26:51;;;;;;;;;;;;;;;;;;5024556;28;20321;-32
2022/10/14 01:29:16;;;;;;;;;;;;;;;;;;5025672;28;19917;-32
2022/10/14 01:31:41;;;;;;;;;;;;;;;;;;5026187;28;19913;-32
2022/10/14 01:34:06;;;;;;;;;;;;;;;;;;5025836;28;20156;-32
2022/10/14 01:36:31;;;;;;;;;;;;;;;;;;5025135;28;20011;-32
2022/10/14 01:38:57;;;;;;;;;;;;;;;;;;5026171;28;20536;-32
2022/10/14 01:41:22;;;;;;;;;;;;;;;;;;5027807;28;19948;-32
2022/10/14 01:43:47;;;;;;;;;;;;;;;;;;5022993;28;19923;-32
2022/10/14 01:46:12;;;;;;;;;;;;;;;;;;5026679;28;19942;-32
2022/10/14 01:48:37;;;;;;;;;;;;;;;;;;5023810;28;20104;-32
2022/10/14 01:51:03;;;;;;;;;;;;;;;;;;5025873;28;19921;-31
2022/10/14 01:53:28;;;;;;;;;;;;;;;;;;5024174;28;19912;-32
2022/10/14 01:55:53;;;;;;;;;;;;;;;;;;5023231;28;20059;-32
2022/10/14 01:58:18;;;;;;;;;;;;;;;;;;5021032;28;19959;-32
2022/10/14 02:00:43;;;;;;;;;;;;;;;;;;5025928;28;20278;-32
2022/10/14 02:03:08;;;;;;;;;;;;;;;;;;5022791;28;19920;-31
2022/10/14 02:05:33;;;;;;;;;;;;;;;;;;5023037;28;19967;-32
2022/10/14 02:07:59;;;;;;;;;;;;;;;;;;5026730;28;19924;-32
2022/10/14 02:10:24;;;;;;;;;;;;;;;;;;5025355;28;20026;-32
2022/10/14 02:12:49;;;;;;;;;;;;;;;;;;5020110;28;19913;-32
2022/10/14 02:15:14;;;;;;;;;;;;;;;;;;5028550;28;19976;-32
2022/10/14 02:17:39;;;;;;;;;;;;;;;;;;5024490;28;19913;-32
2022/10/14 02:20:05;;;;;;;;;;;;;;;;;;5024458;28;19917;-32
2022/10/14 02:22:30;;;;;;;;;;;;;;;;;;5024775;28;19928;-32
2022/10/14 02:24:55;;;;;;;;;;;;;;;;;;5025106;28;19924;-31
2022/10/14 02:27:20;;;;;;;;;;;;;;;;;;5025025;28;19913;-32
2022/10/14 02:29:46;;;;;;;;;;;;;;;;;;5025222;28;19928;-32
2022/10/14 02:32:11;;;;;;;;;;;;;;;;;;5024174;28;19913;-32
2022/10/14 02:34:36;;;;;;;;;;;;;;;;;;5023844;28;20007;-32
2022/10/14 02:37:01;;;;;;;;;;;;;;;;;;5027854;28;19996;-32
2022/10/14 02:39:26;;;;;;;;;;;;;;;;;;5025312;28;19923;-32
2022/10/14 02:41:51;;;;;;;;;;;;;;;;;;5025406;28;19975;-32
2022/10/14 02:44:16;;;;;;;;;;;;;;;;;;5024319;28;20279;-32
2022/10/14 02:46:42;;;;;;;;;;;;;;;;;;5026526;28;19924;-32
2022/10/14 02:49:07;;;;;;;;;;;;;;;;;;5025738;28;19920;-32
2022/10/14 02:51:32;;;;;;;;;;;;;;;;;;5022991;28;19971;-32
2022/10/14 02:53:57;;;;;;;;;;;;;;;;;;5022475;28;20305;-32
2022/10/14 02:56:23;;;;;;;;;;;;;;;;;;5025473;28;19963;-32
2022/10/14 02:58:48;;;;;;;;;;;;;;;;;;5021914;28;19917;-32
2022/10/14 03:01:13;;;;;;;;;;;;;;;;;;5023550;28;19925;-32
2022/10/14 03:03:38;;;;;;;;;;;;;;;;;;5021176;28;20435;-32
2022/10/14 03:06:03;;;;;;;;;;;;;;;;;;5026387;28;20226;-32
2022/10/14 03:08:29;;;;;;;;;;;;;;;;;;5022598;28;20023;-32
2022/10/14 03:10:54;;;;;;;;;;;;;;;;;;5026203;28;19921;-32
2022/10/14 03:13:19;;;;;;;;;;;;;;;;;;5024334;28;20004;-32
2022/10/14 03:15:44;;;;;;;;;;;;;;;;;;5026604;28;20302;-32
2022/10/14 03:18:10;;;;;;;;;;;;;;;;;;5026113;28;19924;-32
2022/10/14 03:20:36;;;;;;;;;;;;;;;;;;5023807;28;19924;-32
2022/10/14 03:23:01;;;;;;;;;;;;;;;;;;5024845;28;20328;-32
2022/10/14 03:25:27;;;;;;;;;;;;;;;;;;5022020;28;19918;-32
2022/10/14 03:27:52;;;;;;;;;;;;;;;;;;5023540;28;19924;-32
2022/10/14 03:30:18;;;;;;;;;;;;;;;;;;5021084;28;19913;-32
2022/10/14 03:32:43;;;;;;;;;;;;;;;;;;5026342;28;19913;-32
2022/10/14 03:35:09;;;;;;;;;;;;;;;;;;5023544;28;19917;-32
2022/10/14 03:37:34;;;;;;;;;;;;;;;;;;5024253;28;20432;-32
2022/10/14 03:39:59;;;;;;;;;;;;;;;;;;5026743;28;20271;-32
2022/10/14 03:42:24;;;;;;;;;;;;;;;;;;5026726;28;19913;-32
2022/10/14 03:44:50;;;;;;;;;;;;;;;;;;5027749;28;20317;-32
2022/10/14 03:47:15;;;;;;;;;;;;;;;;;;5028068;28;19920;-32
2022/10/14 03:49:40;;;;;;;;;;;;;;;;;;5026597;28;19939;-32
2022/10/14 03:52:05;;;;;;;;;;;;;;;;;;5030798;28;19954;-32
2022/10/14 03:54:30;;;;;;;;;;;;;;;;;;5026284;28;19941;-32
2022/10/14 03:56:55;;;;;;;;;;;;;;;;;;5029299;28;19925;-32
2022/10/14 03:59:20;;;;;;;;;;;;;;;;;;5027121;28;20001;-32
2022/10/14 04:01:46;;;;;;;;;;;;;;;;;;5028494;28;20431;-32
2022/10/14 04:04:11;;;;;;;;;;;;;;;;;;5027336;28;19963;-32
2022/10/14 04:06:36;;;;;;;;;;;;;;;;;;5026549;28;20651;-32
2022/10/14 04:09:02;;;;;;;;;;;;;;;;;;5029711;28;19966;-32
2022/10/14 04:11:27;;;;;;;;;;;;;;;;;;5027985;28;19913;-32
2022/10/14 04:13:52;;;;;;;;;;;;;;;;;;5026852;28;19913;-32
2022/10/14 04:16:17;;;;;;;;;;;;;;;;;;5034772;28;19920;-32
2022/10/14 04:18:42;;;;;;;;;;;;;;;;;;5027168;28;19913;-32
2022/10/14 04:21:07;;;;;;;;;;;;;;;;;;5028125;28;19925;-32
2022/10/14 04:23:33;;;;;;;;;;;;;;;;;;5029486;28;19971;-32
2022/10/14 04:25:58;;;;;;;;;;;;;;;;;;5025053;28;20199;-32
2022/10/14 04:28:23;;;;;;;;;;;;;;;;;;5026810;28;19913;-32
2022/10/14 04:30:48;;;;;;;;;;;;;;;;;;5026738;28;19920;-32
2022/10/14 04:33:14;;;;;;;;;;;;;;;;;;5028062;28;19935;-32
2022/10/14 04:35:39;;;;;;;;;;;;;;;;;;5022572;28;19920;-32
2022/10/14 04:38:04;;;;;;;;;;;;;;;;;;5029521;28;20710;-32
2022/10/14 04:40:29;;;;;;;;;;;;;;;;;;5026081;28;21404;-32
2022/10/14 04:42:55;;;;;;;;;;;;;;;;;;5027052;28;19928;-32
2022/10/14 04:45:20;;;;;;;;;;;;;;;;;;5026028;28;19917;-32
2022/10/14 04:47:45;;;;;;;;;;;;;;;;;;5025230;28;20393;-32
2022/10/14 04:50:11;;;;;;;;;;;;;;;;;;5025951;28;19917;-32
2022/10/14 04:52:36;;;;;;;;;;;;;;;;;;5024526;28;19944;-32
2022/10/14 04:55:02;;;;;;;;;;;;;;;;;;5026593;28;19935;-32
2022/10/14 04:57:27;;;;;;;;;;;;;;;;;;5025927;28;20383;-32
2022/10/14 04:59:52;;;;;;;;;;;;;;;;;;5027531;28;20111;-32
2022/10/14 05:02:17;;;;;;;;;;;;;;;;;;5028536;28;19917;-32
2022/10/14 05:04:43;;;;;;;;;;;;;;;;;;5025692;28;19913;-32
2022/10/14 05:07:08;;;;;;;;;;;;;;;;;;5026423;28;20308;-32
2022/10/14 05:09:33;;;;;;;;;;;;;;;;;;5026007;28;20375;-32
2022/10/14 05:11:58;;;;;;;;;;;;;;;;;;5025987;28;19913;-32
2022/10/14 05:14:23;;;;;;;;;;;;;;;;;;5025340;28;19929;-32
2022/10/14 05:16:48;;;;;;;;;;;;;;;;;;5025150;28;19959;-32
2022/10/14 05:19:13;;;;;;;;;;;;;;;;;;5028221;28;20290;-32
2022/10/14 05:21:39;;;;;;;;;;;;;;;;;;5025984;28;19924;-32
2022/10/14 05:24:04;;;;;;;;;;;;;;;;;;5026970;28;20003;-32
2022/10/14 05:26:30;;;;;;;;;;;;;;;;;;5024937;28;19979;-32
2022/10/14 05:28:55;;;;;;;;;;;;;;;;;;5024311;28;19932;-32
2022/10/14 05:31:20;;;;;;;;;;;;;;;;;;5027315;28;19913;-32
2022/10/14 05:33:45;;;;;;;;;;;;;;;;;;5025996;28;20040;-32
2022/10/14 05:36:10;;;;;;;;;;;;;;;;;;5024290;28;19913;-32
2022/10/14 05:38:35;;;;;;;;;;;;;;;;;;5026755;28;19924;-32
2022/10/14 05:41:01;;;;;;;;;;;;;;;;;;5025126;28;20401;-32
2022/10/14 05:43:26;;;;;;;;;;;;;;;;;;5027645;28;19925;-31
2022/10/14 05:45:53;;;;;;;;;;;;;;;;;;5023845;28;21337;-31
2022/10/14 05:48:18;;;;;;;;;;;;;;;;;;5025218;28;19935;-31
2022/10/14 05:50:43;;;;;;;;;;;;;;;;;;5026910;28;19914;-31
2022/10/14 05:53:09;;;;;;;;;;;;;;;;;;5027413;28;19913;-31
2022/10/14 05:55:34;;;;;;;;;;;;;;;;;;5025458;28;20004;-31
2022/10/14 05:57:59;;;;;;;;;;;;;;;;;;5022555;28;19996;-31
2022/10/14 06:00:24;;;;;;;;;;;;;;;;;;5029545;28;19966;-31
2022/10/14 06:02:49;;;;;;;;;;;;;;;;;;5021256;28;19917;-31
2022/10/14 06:05:15;;;;;;;;;;;;;;;;;;5023415;28;19912;-31
2022/10/14 06:07:40;;;;;;;;;;;;;;;;;;5022634;28;20286;-31
2022/10/14 06:10:05;;;;;;;;;;;;;;;;;;5023145;28;19921;-31
2022/10/14 06:12:31;;;;;;;;;;;;;;;;;;5023002;28;19921;-31
2022/10/14 06:14:56;;;;;;;;;;;;;;;;;;5025376;28;19989;-31
2022/10/14 06:17:21;;;;;;;;;;;;;;;;;;5026189;28;20407;-31
2022/10/14 06:19:46;;;;;;;;;;;;;;;;;;5024955;28;19921;-31
2022/10/14 06:22:12;;;;;;;;;;;;;;;;;;5018361;28;19925;-31
2022/10/14 06:24:37;;;;;;;;;;;;;;;;;;5023880;28;20350;-31
2022/10/14 06:27:02;;;;;;;;;;;;;;;;;;5026269;28;19913;-31
2022/10/14 06:29:31;;;;;;;;;;;;;;;;;;5029374;28;19919;-32
2022/10/14 06:31:56;;;;;;;;;;;;;;;;;;5024621;28;19967;-31
2022/10/14 06:34:23;;;;;;;;;;;;;;;;;;5032673;28;19917;-31
2022/10/14 06:36:48;;;;;;;;;;;;;;;;;;5023744;28;19927;-31
2022/10/14 06:39:13;;;;;;;;;;;;;;;;;;5020748;28;19913;-31
2022/10/14 06:41:38;;;;;;;;;;;;;;;;;;5024754;28;19987;-31
2022/10/14 06:44:04;;;;;;;;;;;;;;;;;;5029982;28;20286;-31
2022/10/14 06:46:29;;;;;;;;;;;;;;;;;;5022606;28;19924;-32
2022/10/14 06:48:54;;;;;;;;;;;;;;;;;;5027668;28;19956;-31
2022/10/14 06:51:19;;;;;;;;;;;;;;;;;;5022378;28;19913;-31
2022/10/14 06:53:44;;;;;;;;;;;;;;;;;;5029402;28;19913;-31
2022/10/14 06:56:10;;;;;;;;;;;;;;;;;;5027632;28;19921;-31
2022/10/14 06:58:36;;;;;;;;;;;;;;;;;;5026164;28;19944;-31
2022/10/14 07:01:01;;;;;;;;;;;;;;;;;;5028313;28;20066;-31
2022/10/14 07:03:27;;;;;;;;;;;;;;;;;;5025930;28;19996;-31
2022/10/14 07:05:52;;;;;;;;;;;;;;;;;;5026620;28;20353;-31
2022/10/14 07:08:17;;;;;;;;;;;;;;;;;;5029845;28;19917;-32
2022/10/14 07:10:42;;;;;;;;;;;;;;;;;;5029123;28;19928;-31
2022/10/14 07:13:08;;;;;;;;;;;;;;;;;;5027803;28;20346;-31
2022/10/14 07:15:33;;;;;;;;;;;;;;;;;;5027956;28;19922;-31
2022/10/14 07:17:58;;;;;;;;;;;;;;;;;;5026501;28;19914;-31
2022/10/14 07:20:23;;;;;;;;;;;;;;;;;;5021702;28;19913;-31
2022/10/14 07:22:48;;;;;;;;;;;;;;;;;;5026886;28;19913;-31
2022/10/14 07:25:13;;;;;;;;;;;;;;;;;;5026372;28;19913;-31
2022/10/14 07:27:38;;;;;;;;;;;;;;;;;;5024743;28;20287;-31
2022/10/14 07:30:04;;;;;;;;;;;;;;;;;;5025558;28;20036;-31
2022/10/14 07:32:29;;;;;;;;;;;;;;;;;;5025387;28;19916;-31
2022/10/14 07:34:54;;;;;;;;;;;;;;;;;;5022245;28;20324;-31
2022/10/14 07:37:19;;;;;;;;;;;;;;;;;;5022353;28;20322;-31
2022/10/14 07:39:45;;;;;;;;;;;;;;;;;;5022450;28;19920;-31
2022/10/14 07:42:10;;;;;;;;;;;;;;;;;;5027182;28;19953;-31
2022/10/14 07:44:38;;;;;;;;;;;;;;;;;;5025857;28;19917;-32
2022/10/14 07:47:04;;;;;;;;;;;;;;;;;;5026788;28;19995;-31
2022/10/14 07:49:29;;;;;;;;;;;;;;;;;;5024107;28;19913;-31
2022/10/14 07:51:55;;;;;;;;;;;;;;;;;;5023952;28;20437;-31
2022/10/14 07:54:20;;;;;;;;;;;;;;;;;;5021754;28;19923;-32
2022/10/14 07:56:45;;;;;;;;;;;;;;;;;;5019170;28;19980;-32
2022/10/14 07:59:10;;;;;;;;;;;;;;;;;;5020815;28;20075;-31
2022/10/14 08:01:36;;;;;;;;;;;;;;;;;;5024674;28;19928;-32
2022/10/14 08:04:01;;;;;;;;;;;;;;;;;;5021538;28;19928;-31
2022/10/14 08:06:26;;;;;;;;;;;;;;;;;;5021821;28;20385;-31
2022/10/14 08:08:51;;;;;;;;;;;;;;;;;;5018892;28;19919;-32
2022/10/14 08:11:16;;;;;;;;;;;;;;;;;;5026119;28;19955;-32
2022/10/14 08:13:42;;;;;;;;;;;;;;;;;;5022584;28;19974;-31
2022/10/14 08:16:07;;;;;;;;;;;;;;;;;;5024839;28;20067;-31
2022/10/14 08:18:32;;;;;;;;;;;;;;;;;;5023928;28;19920;-31
2022/10/14 08:20:57;;;;;;;;;;;;;;;;;;5021986;28;19927;-32
2022/10/14 08:23:22;;;;;;;;;;;;;;;;;;5025328;28;19959;-32
2022/10/14 08:25:47;;;;;;;;;;;;;;;;;;5022520;28;20387;-32
2022/10/14 08:28:12;;;;;;;;;;;;;;;;;;5026580;28;19928;-31
2022/10/14 08:30:38;;;;;;;;;;;;;;;;;;5024798;28;20262;-31
2022/10/14 08:33:03;;;;;;;;;;;;;;;;;;5018717;28;19961;-32
2022/10/14 08:35:28;;;;;;;;;;;;;;;;;;5019716;28;20379;-32
2022/10/14 08:37:53;;;;;;;;;;;;;;;;;;5025788;28;19913;-32
2022/10/14 08:40:18;;;;;;;;;;;;;;;;;;5027107;28;20011;-32
2022/10/14 08:42:43;;;;;;;;;;;;;;;;;;5025885;28;19917;-32
2022/10/14 08:45:08;;;;;;;;;;;;;;;;;;5021827;28;19925;-32
2022/10/14 08:47:34;;;;;;;;;;;;;;;;;;5026967;28;19927;-32
2022/10/14 08:50:00;;;;;;;;;;;;;;;;;;5022913;28;19959;-32
2022/10/14 08:52:25;;;;;;;;;;;;;;;;;;5020890;28;19947;-32
2022/10/14 08:54:50;;;;;;;;;;;;;;;;;;5023046;28;19953;-32
2022/10/14 08:57:15;;;;;;;;;;;;;;;;;;5025405;28;19914;-32
2022/10/14 08:59:41;;;;;;;;;;;;;;;;;;5024481;28;19917;-32
2022/10/14 09:02:06;;;;;;;;;;;;;;;;;;5016352;28;19961;-32
2022/10/14 09:04:31;;;;;;;;;;;;;;;;;;5019753;28;19917;-32
2022/10/14 09:06:56;;;;;;;;;;;;;;;;;;5019283;28;19971;-32
2022/10/14 09:09:23;;;;;;;;;;;;;;;;;;5024027;28;20389;-32
2022/10/14 09:11:49;;;;;;;;;;;;;;;;;;5022881;28;19948;-32
2022/10/14 09:14:14;;;;;;;;;;;;;;;;;;5020055;28;19913;-32
2022/10/14 09:16:39;;;;;;;;;;;;;;;;;;5024908;28;19921;-32
2022/10/14 09:19:04;;;;;;;;;;;;;;;;;;5019695;28;19921;-32
2022/10/14 09:21:29;;;;;;;;;;;;;;;;;;5023836;28;19917;-32
2022/10/14 09:23:54;;;;;;;;;;;;;;;;;;5021908;28;19952;-32
2022/10/14 09:26:20;;;;;;;;;;;;;;;;;;5024221;28;19920;-32
2022/10/14 09:28:45;;;;;;;;;;;;;;;;;;5021027;28;19914;-32
2022/10/14 09:31:10;;;;;;;;;;;;;;;;;;5023811;28;19913;-32
2022/10/14 09:33:38;;;;;;;;;;;;;;;;;;5023134;28;19913;-32
2022/10/14 09:36:03;;;;;;;;;;;;;;;;;;5024803;28;20290;-32
2022/10/14 09:38:28;;;;;;;;;;;;;;;;;;5020916;28;19913;-32
2022/10/14 09:40:54;;;;;;;;;;;;;;;;;;5025081;28;19921;-32
2022/10/14 09:43:19;;;;;;;;;;;;;;;;;;5028294;28;19917;-32
2022/10/14 09:45:44;;;;;;;;;;;;;;;;;;5026757;28;19917;-32
2022/10/14 09:48:09;;;;;;;;;;;;;;;;;;5029308;28;20334;-32
2022/10/14 09:50:34;;;;;;;;;;;;;;;;;;5028703;28;19913;-32
2022/10/14 09:53:00;;;;;;;;;;;;;;;;;;5030408;28;19921;-32
2022/10/14 09:55:25;;;;;;;;;;;;;;;;;;5019468;28;19920;-32
2022/10/14 09:57:50;;;;;;;;;;;;;;;;;;5021964;28;19960;-32
2022/10/14 10:00:15;;;;;;;;;;;;;;;;;;5026538;28;20395;-32
2022/10/14 10:02:41;;;;;;;;;;;;;;;;;;5023403;28;19968;-32
2022/10/14 10:05:06;;;;;;;;;;;;;;;;;;5027759;28;19924;-32
2022/10/14 10:07:32;;;;;;;;;;;;;;;;;;5027838;28;19914;-32
2022/10/14 10:09:57;;;;;;;;;;;;;;;;;;5029214;28;19917;-32
2022/10/14 10:12:22;;;;;;;;;;;;;;;;;;5025194;28;19913;-32
2022/10/14 10:14:48;;;;;;;;;;;;;;;;;;5026976;28;19923;-33
2022/10/14 10:17:13;;;;;;;;;;;;;;;;;;5027184;28;19917;-32
2022/10/14 10:19:39;;;;;;;;;;;;;;;;;;5025445;28;19960;-32
2022/10/14 10:22:04;;;;;;;;;;;;;;;;;;5026859;28;19917;-33
2022/10/14 10:24:31;;;;;;;;;;;;;;;;;;5028709;28;19913;-31
2022/10/14 10:26:56;;;;;;;;;;;;;;;;;;5029876;28;20435;-31
2022/10/14 10:29:22;;;;;;;;;;;;;;;;;;5021562;28;19995;-30
2022/10/14 10:31:47;;;;;;;;;;;;;;;;;;5018621;28;19971;-30
2022/10/14 10:34:12;;;;;;;;;;;;;;;;;;5024971;28;19917;-30
2022/10/14 10:36:37;;;;;;;;;;;;;;;;;;5018689;28;20351;-31
2022/10/14 10:39:02;;;;;;;;;;;;;;;;;;5026275;28;19943;-31
2022/10/14 10:41:27;;;;;;;;;;;;;;;;;;5021511;28;19916;-31
2022/10/14 10:43:52;;;;;;;;;;;;;;;;;;5028963;28;19995;-31
2022/10/14 10:46:18;;;;;;;;;;;;;;;;;;5021760;28;20367;-30
2022/10/14 10:48:43;;;;;;;;;;;;;;;;;;5023944;28;19924;-30
2022/10/14 10:51:08;;;;;;;;;;;;;;;;;;5018024;28;20451;-30
2022/10/14 10:53:33;;;;;;;;;;;;;;;;;;5021971;28;20000;-30
2022/10/14 10:55:58;;;;;;;;;;;;;;;;;;5020248;28;19913;-30
2022/10/14 10:58:26;;;;;;;;;;;;;;;;;;5027108;28;20401;-30
2022/10/14 11:00:51;;;;;;;;;;;;;;;;;;5023387;28;20413;-30
2022/10/14 11:03:16;;;;;;;;;;;;;;;;;;5024195;28;19960;-29
2022/10/14 11:05:41;;;;;;;;;;;;;;;;;;5017786;28;21374;-30
2022/10/14 11:13:34;;;;;;;;;;;;;;;;;;5022853;28;19951;-29
2022/10/14 11:16:00;;;;;;;;;;;;;;;;;;5021914;28;20571;-29
2022/10/14 11:18:25;;;;;;;;;;;;;;;;;;5022829;28;19920;-29
2022/10/14 11:20:50;;;;;;;;;;;;;;;;;;5019374;28;19923;-29
2022/10/14 11:23:15;;;;;;;;;;;;;;;;;;5023766;28;19916;-29
2022/10/14 11:25:40;;;;;;;;;;;;;;;;;;5021399;28;19921;-29
2022/10/14 11:28:05;;;;;;;;;;;;;;;;;;5020255;28;19913;-29
2022/10/14 11:30:31;;;;;;;;;;;;;;;;;;5016070;28;19914;-29
2022/10/14 11:32:56;;;;;;;;;;;;;;;;;;5018530;28;20004;-29
2022/10/14 11:35:21;;;;;;;;;;;;;;;;;;5024070;28;19913;-29
2022/10/14 11:37:46;;;;;;;;;;;;;;;;;;5026086;28;20681;-29
2022/10/14 11:40:11;;;;;;;;;;;;;;;;;;5026995;28;19910;-29
2022/10/14 11:42:37;;;;;;;;;;;;;;;;;;5025947;28;19921;-30
2022/10/14 11:45:02;;;;;;;;;;;;;;;;;;5034043;23;19901;-88
2022/10/14 11:47:27;;;;;;;;;;;;;;;;;;5059286;28;20572;-87
2022/10/14 11:49:54;;;;;;;;;;;;;;;;;;5060338;28;20348;-86
2022/10/14 11:52:19;;;;;;;;;;;;;;;;;;5055789;28;19955;-89
2022/10/14 11:54:44;;;;;;;;;;;;;;;;;;5054984;28;19951;-89
2022/10/14 11:57:10;;;;;;;;;;;;;;;;;;5080035;22;19941;-35
2022/10/14 11:59:35;;;;;;;;;;;;;;;;;;5020315;28;19999;-35
2022/10/14 12:02:00;;;;;;;;;;;;;;;;;;5019598;28;19928;-35
2022/10/14 12:04:26;;;;;;;;;;;;;;;;;;5021881;28;20270;-35
2022/10/14 12:06:51;;;;;;;;;;;;;;;;;;5019758;28;19917;-35
2022/10/14 12:09:16;;;;;;;;;;;;;;;;;;5022286;28;19920;-35
2022/10/14 12:11:41;;;;;;;;;;;;;;;;;;5012130;28;19924;-35
2022/10/14 12:14:06;;;;;;;;;;;;;;;;;;5019981;28;19917;-35
2022/10/14 12:16:32;;;;;;;;;;;;;;;;;;5019146;28;19928;-35
2022/10/14 12:18:57;;;;;;;;;;;;;;;;;;5017419;28;19923;-35
2022/10/14 12:21:22;;;;;;;;;;;;;;;;;;5017392;28;19932;-35
2022/10/14 12:23:47;;;;;;;;;;;;;;;;;;5022603;28;19924;-35
2022/10/14 12:26:12;;;;;;;;;;;;;;;;;;5018516;28;19923;-35
2022/10/14 12:28:37;;;;;;;;;;;;;;;;;;5023859;28;20278;-35
2022/10/14 12:31:03;;;;;;;;;;;;;;;;;;5018292;28;20008;-35
2022/10/14 12:33:28;;;;;;;;;;;;;;;;;;5023321;28;19920;-35
2022/10/14 12:35:57;;;;;;;;;;;;;;;;;;5014685;28;19921;-35
2022/10/14 12:38:23;;;;;;;;;;;;;;;;;;5016320;28;19918;-35
2022/10/14 12:40:48;;;;;;;;;;;;;;;;;;5016985;28;19944;-35
2022/10/14 12:43:13;;;;;;;;;;;;;;;;;;5017791;28;19955;-35
2022/10/14 12:45:38;;;;;;;;;;;;;;;;;;5017948;28;19920;-35
2022/10/14 12:48:03;;;;;;;;;;;;;;;;;;5018228;28;19917;-35
2022/10/14 12:50:29;;;;;;;;;;;;;;;;;;5015054;28;19916;-35
2022/10/14 12:52:54;;;;;;;;;;;;;;;;;;5017984;28;20000;-35
2022/10/14 12:55:19;;;;;;;;;;;;;;;;;;5014819;28;19953;-35
2022/10/14 12:57:44;;;;;;;;;;;;;;;;;;5014118;28;19921;-35
2022/10/14 13:00:09;;;;;;;;;;;;;;;;;;5018497;28;20027;-35
2022/10/14 13:02:34;;;;;;;;;;;;;;;;;;5020927;28;19922;-35
2022/10/14 13:04:59;;;;;;;;;;;;;;;;;;5012674;28;19917;-35
2022/10/14 13:07:25;;;;;;;;;;;;;;;;;;5015386;28;19956;-35
2022/10/14 13:09:50;;;;;;;;;;;;;;;;;;5021142;28;20375;-35
2022/10/14 13:12:15;;;;;;;;;;;;;;;;;;5018552;28;19928;-35
2022/10/14 13:14:40;;;;;;;;;;;;;;;;;;5017544;28;20330;-35
2022/10/14 13:17:05;;;;;;;;;;;;;;;;;;5014667;28;20324;-35
2022/10/14 13:19:30;;;;;;;;;;;;;;;;;;5024879;28;19924;-35
2022/10/14 13:21:56;;;;;;;;;;;;;;;;;;5020463;28;19921;-36
2022/10/14 13:24:21;;;;;;;;;;;;;;;;;;5016866;28;19917;-35
2022/10/14 13:26:46;;;;;;;;;;;;;;;;;;5012171;28;20584;-36
2022/10/14 13:29:11;;;;;;;;;;;;;;;;;;5018841;28;19948;-36
2022/10/14 13:31:36;;;;;;;;;;;;;;;;;;5013855;28;19921;-36
2022/10/14 13:34:01;;;;;;;;;;;;;;;;;;5016864;28;20015;-36
2022/10/14 13:36:26;;;;;;;;;;;;;;;;;;5018055;28;19928;-36
2022/10/14 13:38:52;;;;;;;;;;;;;;;;;;5018309;28;19921;-36
2022/10/14 13:41:23;;;;;;;;;;;;;;;;;;5017816;28;19937;-36
2022/10/14 13:43:48;;;;;;;;;;;;;;;;;;5013476;28;19918;-35
2022/10/14 13:46:14;;;;;;;;;;;;;;;;;;5016201;28;19917;-36
2022/10/14 13:48:39;;;;;;;;;;;;;;;;;;5016350;28;19921;-36
2022/10/14 13:51:04;;;;;;;;;;;;;;;;;;5013849;28;20282;-36
2022/10/14 13:53:29;;;;;;;;;;;;;;;;;;5013590;28;19917;-36
2022/10/14 13:55:56;;;;;;;;;;;;;;;;;;5014481;28;19917;-36
2022/10/14 13:58:21;;;;;;;;;;;;;;;;;;5016576;28;20298;-36
2022/10/14 14:00:46;;;;;;;;;;;;;;;;;;5014114;28;19921;-36
2022/10/14 14:03:11;;;;;;;;;;;;;;;;;;5009234;28;19975;-36
2022/10/14 14:05:36;;;;;;;;;;;;;;;;;;5012933;28;19921;-36
2022/10/14 14:08:02;;;;;;;;;;;;;;;;;;5013451;28;19951;-36
2022/10/14 14:10:27;;;;;;;;;;;;;;;;;;5016264;28;20068;-36
2022/10/14 14:12:53;;;;;;;;;;;;;;;;;;5012403;28;20286;-35
2022/10/14 14:15:18;;;;;;;;;;;;;;;;;;5014579;28;19918;-36
2022/10/14 14:17:43;;;;;;;;;;;;;;;;;;5014745;28;19918;-35
2022/10/14 14:20:08;;;;;;;;;;;;;;;;;;5011441;28;19925;-35
2022/10/14 14:22:33;;;;;;;;;;;;;;;;;;5013954;28;19921;-35
2022/10/14 14:24:58;;;;;;;;;;;;;;;;;;5019034;28;20433;-35
2022/10/14 14:27:25;;;;;;;;;;;;;;;;;;5019466;28;19917;-35
2022/10/14 14:29:50;;;;;;;;;;;;;;;;;;5007293;28;19920;-35
2022/10/14 14:32:15;;;;;;;;;;;;;;;;;;5011925;28;19913;-35
2022/10/14 14:34:40;;;;;;;;;;;;;;;;;;5007654;28;19949;-35
2022/10/14 14:37:06;;;;;;;;;;;;;;;;;;5011343;28;19947;-35
2022/10/14 14:39:31;;;;;;;;;;;;;;;;;;5012233;28;20144;-35
2022/10/14 14:41:57;;;;;;;;;;;;;;;;;;5000007;28;20020;-35
2022/10/14 14:44:22;;;;;;;;;;;;;;;;;;5010352;28;19921;-35
2022/10/14 14:46:47;;;;;;;;;;;;;;;;;;5016872;28;20012;-35
2022/10/14 14:49:13;;;;;;;;;;;;;;;;;;5006368;28;19928;-35
2022/10/14 14:51:38;;;;;;;;;;;;;;;;;;5013807;28;19924;-35
2022/10/14 14:54:03;;;;;;;;;;;;;;;;;;5015613;28;19917;-35
2022/10/14 14:56:28;;;;;;;;;;;;;;;;;;5013358;28;20412;-35
2022/10/14 14:58:53;;;;;;;;;;;;;;;;;;5012881;28;19921;-35
2022/10/14 15:01:18;;;;;;;;;;;;;;;;;;5015409;28;20333;-35
2022/10/14 15:03:43;;;;;;;;;;;;;;;;;;5010646;28;20443;-35
2022/10/14 15:06:09;;;;;;;;;;;;;;;;;;5015630;28;19924;-35
2022/10/14 15:08:34;;;;;;;;;;;;;;;;;;5015912;28;20704;-35
2022/10/14 15:11:00;;;;;;;;;;;;;;;;;;5016279;28;19925;-35
2022/10/14 15:13:25;;;;;;;;;;;;;;;;;;5009092;28;19917;-35
2022/10/14 15:15:51;;;;;;;;;;;;;;;;;;5015607;28;20327;-35
2022/10/14 15:18:16;;;;;;;;;;;;;;;;;;5013288;28;19959;-35
2022/10/14 15:20:41;;;;;;;;;;;;;;;;;;5016855;28;20315;-35
2022/10/14 15:23:06;;;;;;;;;;;;;;;;;;5013184;28;20385;-35
2022/10/14 15:25:31;;;;;;;;;;;;;;;;;;5013137;28;20008;-35
2022/10/14 15:27:57;;;;;;;;;;;;;;;;;;5013880;28;20415;-35
2022/10/14 15:30:22;;;;;;;;;;;;;;;;;;5014295;28;19921;-35
2022/10/14 15:32:47;;;;;;;;;;;;;;;;;;5012538;28;19948;-35
2022/10/14 15:35:12;;;;;;;;;;;;;;;;;;5019060;28;19924;-35
2022/10/14 15:37:37;;;;;;;;;;;;;;;;;;5021025;28;19925;-35
2022/10/14 15:40:02;;;;;;;;;;;;;;;;;;5017308;28;19921;-35
2022/10/14 15:42:28;;;;;;;;;;;;;;;;;;5023300;28;19931;-35
2022/10/14 15:44:53;;;;;;;;;;;;;;;;;;5016866;28;19917;-35
2022/10/14 15:47:18;;;;;;;;;;;;;;;;;;5022003;28;19948;-35
2022/10/14 15:49:43;;;;;;;;;;;;;;;;;;5019038;28;19921;-35
2022/10/14 15:52:09;;;;;;;;;;;;;;;;;;5017983;28;19924;-35
2022/10/14 15:54:34;;;;;;;;;;;;;;;;;;5014506;28;19921;-35
2022/10/14 15:56:59;;;;;;;;;;;;;;;;;;5022575;28;19917;-35
2022/10/14 15:59:25;;;;;;;;;;;;;;;;;;5017068;28;19995;-35
2022/10/14 16:01:50;;;;;;;;;;;;;;;;;;5018989;28;20039;-35
2022/10/14 16:04:15;;;;;;;;;;;;;;;;;;5020250;28;19999;-35
2022/10/14 16:06:40;;;;;;;;;;;;;;;;;;5019692;28;19977;-35
2022/10/14 16:09:05;;;;;;;;;;;;;;;;;;5019539;28;19917;-35
2022/10/14 16:11:31;;;;;;;;;;;;;;;;;;5014063;28;20659;-35
2022/10/14 16:13:56;;;;;;;;;;;;;;;;;;5019282;28;19916;-35
2022/10/14 16:16:21;;;;;;;;;;;;;;;;;;5023549;28;19913;-35
2022/10/14 16:18:46;;;;;;;;;;;;;;;;;;5026978;28;19916;-35
2022/10/14 16:21:12;;;;;;;;;;;;;;;;;;5024664;28;19987;-35
2022/10/14 16:23:37;;;;;;;;;;;;;;;;;;5029476;28;19999;-35
2022/10/14 16:26:02;;;;;;;;;;;;;;;;;;5018102;28;19924;-35
2022/10/14 16:28:27;;;;;;;;;;;;;;;;;;5023076;28;19913;-35
2022/10/14 16:30:53;;;;;;;;;;;;;;;;;;5016898;28;19923;-35
2022/10/14 16:33:18;;;;;;;;;;;;;;;;;;5019622;28;20434;-35
2022/10/14 16:35:43;;;;;;;;;;;;;;;;;;5017351;28;19925;-35
2022/10/14 16:38:08;;;;;;;;;;;;;;;;;;5014822;28;20017;-35